Map

Track Data

SID SEASON NUMBER BASIN SUBBASIN NAME ISO_TIME NATURE LAT LON WMO_WIND WMO_PRES WMO_AGENCY TRACK_TYPE DIST2LAND LANDFALL IFLAG USA_AGENCY USA_ATCF_ID USA_LAT USA_LON USA_RECORD USA_STATUS USA_WIND USA_PRES USA_SSHS USA_R34_NE USA_R34_SE USA_R34_SW USA_R34_NW USA_R50_NE USA_R50_SE USA_R50_SW USA_R50_NW USA_R64_NE USA_R64_SE USA_R64_SW USA_R64_NW USA_POCI USA_ROCI USA_RMW USA_EYE TOKYO_LAT TOKYO_LON TOKYO_GRADE TOKYO_WIND TOKYO_PRES TOKYO_R50_DIR TOKYO_R50_LONG TOKYO_R50_SHORT TOKYO_R30_DIR TOKYO_R30_LONG TOKYO_R30_SHORT TOKYO_LAND CMA_LAT CMA_LON CMA_CAT CMA_WIND CMA_PRES HKO_LAT HKO_LON HKO_CAT HKO_WIND HKO_PRES NEWDELHI_LAT NEWDELHI_LON NEWDELHI_GRADE NEWDELHI_WIND NEWDELHI_PRES NEWDELHI_CI NEWDELHI_DP NEWDELHI_POCI REUNION_LAT REUNION_LON REUNION_TYPE REUNION_WIND REUNION_PRES REUNION_TNUM REUNION_CI REUNION_RMW REUNION_R34_NE REUNION_R34_SE REUNION_R34_SW REUNION_R34_NW REUNION_R50_NE REUNION_R50_SE REUNION_R50_SW REUNION_R50_NW REUNION_R64_NE REUNION_R64_SE REUNION_R64_SW REUNION_R64_NW BOM_LAT BOM_LON BOM_TYPE BOM_WIND BOM_PRES BOM_TNUM BOM_CI BOM_RMW BOM_R34_NE BOM_R34_SE BOM_R34_SW BOM_R34_NW BOM_R50_NE BOM_R50_SE BOM_R50_SW BOM_R50_NW BOM_R64_NE BOM_R64_SE BOM_R64_SW BOM_R64_NW BOM_ROCI BOM_POCI BOM_EYE BOM_POS_METHOD BOM_PRES_METHOD NADI_LAT NADI_LON NADI_CAT NADI_WIND NADI_PRES WELLINGTON_LAT WELLINGTON_LON WELLINGTON_WIND WELLINGTON_PRES DS824_LAT DS824_LON DS824_STAGE DS824_WIND DS824_PRES TD9636_LAT TD9636_LON TD9636_STAGE TD9636_WIND TD9636_PRES TD9635_LAT TD9635_LON TD9635_WIND TD9635_PRES TD9635_ROCI NEUMANN_LAT NEUMANN_LON NEUMANN_CLASS NEUMANN_WIND NEUMANN_PRES MLC_LAT MLC_LON MLC_CLASS MLC_WIND MLC_PRES USA_GUST BOM_GUST BOM_GUST_PER REUNION_GUST REUNION_GUST_PER USA_SEAHGT USA_SEARAD_NE USA_SEARAD_SE USA_SEARAD_SW USA_SEARAD_NW STORM_SPEED STORM_DIR
1988249N18163 1988 71 WP MM HAL 1988-09-05 06:00:00 NR 18.3000 163.400 main 2719 2698 O_________O___ jtwc_wp WP141988 18.3000 163.400 20 -1 18.3000 163.400 1 20 5 250
1988249N18163 1988 71 WP MM HAL 1988-09-05 09:00:00 NR 18.2094 163.142 main 2693 2673 P_________P___ WP141988 18.2101 163.140 20 -1 18.2086 163.143 1 20 5 247
1988249N18163 1988 71 WP MM HAL 1988-09-05 12:00:00 NR 18.1000 162.900 main 2673 2653 O_________O___ jtwc_wp WP141988 18.1000 162.900 20 -1 18.1000 162.900 1 20 5 240
1988249N18163 1988 71 WP MM HAL 1988-09-05 15:00:00 NR 17.9601 162.686 main 2653 2623 P_________P___ WP141988 17.9575 162.693 20 -1 17.9627 162.680 1 20 5 233
1988249N18163 1988 71 WP MM HAL 1988-09-05 18:00:00 NR 17.8033 162.490 main 2623 2603 O_________P___ jtwc_wp WP141988 17.8000 162.500 20 -1 17.8067 162.480 1 20 5 230
1988249N18163 1988 71 WP MM HAL 1988-09-05 21:00:00 NR 17.6449 162.294 main 2594 2574 P_________P___ WP141988 17.6425 162.300 20 -1 17.6473 162.289 1 20 5 231
1988249N18163 1988 71 WP MM HAL 1988-09-06 00:00:00 NR 17.5000 162.100 main 2574 2554 O_________O___ jtwc_wp WP141988 17.5000 162.100 20 -1 17.5000 162.100 1 20 5 235
1988249N18163 1988 71 WP MM HAL 1988-09-06 03:00:00 NR 17.3870 161.900 main 2554 2534 P_________P___ WP141988 17.3925 161.900 20 -1 17.3815 161.900 1 20 4 241
1988249N18163 1988 71 WP MM HAL 1988-09-06 06:00:00 NR 17.2887 161.700 main 2534 2514 O_________P___ jtwc_wp WP141988 17.3000 161.700 20 -1 17.2774 161.700 1 20 4 243
1988249N18163 1988 71 WP MM HAL 1988-09-06 09:00:00 NR 17.1923 161.500 main 2514 2494 P_________P___ WP141988 17.2000 161.500 20 -1 17.1846 161.500 1 20 4 244
1988249N18163 1988 71 WP MM HAL 1988-09-06 12:00:00 NR 17.1000 161.300 main 2494 2474 O_________O___ jtwc_wp WP141988 17.1000 161.300 20 -1 17.1000 161.300 1 20 4 242
1988249N18163 1988 71 WP MM HAL 1988-09-06 15:00:00 NR 16.9969 161.108 main 2474 2455 P_________P___ WP141988 16.9925 161.100 20 -1 17.0014 161.116 1 20 4 242
1988249N18163 1988 71 WP MM HAL 1988-09-06 18:00:00 NR 16.9061 160.915 main 2455 2435 O_________P___ jtwc_wp WP141988 16.9000 160.900 20 -1 16.9122 160.930 1 20 4 247
1988249N18163 1988 71 WP MM HAL 1988-09-06 21:00:00 NR 16.8384 160.722 main 2435 2425 P_________P___ WP141988 16.8349 160.715 20 -1 16.8420 160.729 1 20 4 255
1988249N18163 1988 71 WP MM HAL 1988-09-07 00:00:00 NR 16.8000 160.500 main 2425 2411 O_________O___ jtwc_wp WP141988 16.8000 160.500 20 -1 16.8000 160.500 1 20 5 263
1988249N18163 1988 71 WP MM HAL 1988-09-07 03:00:00 NR 16.7805 160.226 main 2411 2397 P_________P___ WP141988 16.7850 160.215 22 -1 16.7759 160.237 1 21 6 269
1988249N18163 1988 71 WP MM HAL 1988-09-07 06:00:00 NR 16.7912 159.922 main 2397 2384 O_________P___ jtwc_wp WP141988 16.8000 159.900 25 -1 16.7824 159.945 1 22 6 275
1988249N18163 1988 71 WP MM HAL 1988-09-07 09:00:00 NR 16.8288 159.615 main 2384 2379 P_________P___ WP141988 16.8350 159.600 25 -1 16.8227 159.630 1 23 6 280
1988249N18163 1988 71 WP MM HAL 1988-09-07 12:00:00 NR 16.9000 159.300 main 2381 2373 O_________O___ jtwc_wp WP141988 16.9000 159.300 25 -1 16.9000 159.300 1 25 6 285
1988249N18163 1988 71 WP MM HAL 1988-09-07 15:00:00 NR 16.9894 159.004 main 2379 2371 P_________P___ WP141988 16.9774 159.015 25 -1 17.0014 158.993 1 26 6 290
1988249N18163 1988 71 WP MM HAL 1988-09-07 18:00:00 NR 17.1196 158.684 main 2377 2373 O_________P___ jtwc_wp WP141988 17.1000 158.700 25 -1 17.1393 158.667 1 27 7 295
1988249N18163 1988 71 WP MM HAL 1988-09-07 21:00:00 NR 17.2925 158.319 main 2383 2379 P_________P___ WP141988 17.2774 158.330 27 -1 17.3075 158.308 1 28 9 295
1988249N18163 1988 71 WP MM HAL 1988-09-08 00:00:00 TS 17.4778 157.878 1004 tokyo main 2389 2382 OO________O___ jtwc_wp WP141988 17.5000 157.900 30 -1 17.3000 157.700 2 1004 0 0 0 17.5000 157.900 1 30 10 294
1988249N18163 1988 71 WP MM HAL 1988-09-08 03:00:00 TS 17.6748 157.405 main 2393 2387 PP________P___ WP141988 17.7499 157.423 30 -1 17.4925 157.280 2 1004 0 0 17.6909 157.449 1 31 10 293
1988249N18163 1988 71 WP MM HAL 1988-09-08 06:00:00 TS 17.8931 156.874 1004 tokyo main 2399 2393 OOO_______P___ jtwc_wp WP141988 18.0000 156.900 30 -1 17.7000 156.800 2 1004 0 0 0 18.0000 156.700 1 29 1000 17.9044 156.947 1 32 11 293
1988249N18163 1988 71 WP MM HAL 1988-09-08 09:00:00 TS 18.0952 156.343 main 2403 2401 PPP_______P___ WP141988 18.1998 156.372 32 -1 17.9352 156.235 2 1003 0 0 18.1150 156.395 1 29 1000 18.1407 156.396 1 33 11 293
1988249N18163 1988 71 WP MM HAL 1988-09-08 12:00:00 TS 18.3125 155.825 1002 tokyo main 2412 2363 OOOO______O___ jtwc_wp WP141988 18.4000 155.800 35 0 18.2000 155.700 2 1002 0 0 0 18.3000 156.000 1 29 1000 18.1000 156.000 TD 30 1000 18.4000 155.800 2 35 11 297
1988249N18163 1988 71 WP MM HAL 1988-09-08 15:00:00 TS 18.5946 155.302 main 2363 2299 PPPP______P___ WP141988 18.6273 155.172 37 0 18.4995 155.357 2 1001 0 0 18.5925 155.453 1 29 1000 18.5547 155.465 TD 30 1000 18.6790 155.144 2 37 12 299
1988249N18163 1988 71 WP MM HAL 1988-09-08 18:00:00 TS 18.9112 154.705 1000 tokyo main 2299 2236 OOOO______P___ jtwc_wp WP141988 18.9000 154.500 40 0 18.8000 155.000 2 1000 0 0 0 18.9000 154.800 1 29 1000 19.0000 154.800 TD 30 1000 18.9784 154.450 2 40 14 297
1988249N18163 1988 71 WP MM HAL 1988-09-08 21:00:00 TS 19.2117 154.018 main 2230 2161 PPPP______P___ WP141988 19.2351 153.785 42 0 19.0271 154.482 2 999 0 0 19.0848 154.122 1 29 1000 19.4231 153.943 TD 32 997 19.2884 153.756 2 42 15 295
1988249N18163 1988 71 WP MM HAL 1988-09-09 00:00:00 TS 19.5200 153.300 35 998 tokyo main 2161 2090 OOOO______O___ jtwc_wp WP141988 19.6000 153.100 45 0 19.3000 153.800 3 35 998 0 9 60 60 0 19.3000 153.400 1 29 1000 19.8000 153.100 TS 35 995 19.6000 153.100 2 45 15 297
1988249N18163 1988 71 WP MM HAL 1988-09-09 03:00:00 TS 19.8901 152.615 main 2084 2022 PPPP______P___ WP141988 19.9647 152.520 45 0 19.7432 152.908 3 37 997 0 9 60 60 19.6852 152.621 1 33 997 20.1218 152.504 TS 37 992 19.9356 152.520 2 45 14 301
1988249N18163 1988 71 WP MM HAL 1988-09-09 06:00:00 TS 20.2533 151.977 40 996 tokyo main 2013 1961 OOOO______P___ jtwc_wp WP141988 20.3000 152.000 45 0 20.2000 152.000 3 40 996 0 9 60 60 0 20.1000 151.900 2 38 995 20.4000 152.000 TS 40 990 20.2663 151.983 2 45 13 301
1988249N18163 1988 71 WP MM HAL 1988-09-09 09:00:00 TS 20.5641 151.409 main 1952 1906 PPPP______P___ WP141988 20.5874 151.477 45 0 20.5595 151.290 3 42 994 0 9 60 60 20.4295 151.362 2 38 992 20.6800 151.435 TS 40 990 20.5639 151.479 2 45 11 298
1988249N18163 1988 71 WP MM HAL 1988-09-09 12:00:00 TS 20.8000 150.900 45 992 tokyo main 1906 1869 OOOO______O___ jtwc_wp WP141988 20.8000 151.000 45 0 20.8000 150.700 3 45 992 0 9 60 60 0 20.7000 150.900 2 38 990 20.9000 150.900 TS 40 990 20.8000 151.000 2 45 10 292
1988249N18163 1988 71 WP MM HAL 1988-09-09 15:00:00 TS 20.9471 150.415 main 1869 1838 PPPP______P___ WP141988 20.9297 150.600 45 0 20.8873 150.155 3 47 991 0 9 92 92 20.9300 150.385 2 38 990 21.0374 150.420 TS 40 990 20.9514 150.515 2 46 9 285
1988249N18163 1988 71 WP MM HAL 1988-09-09 18:00:00 TS 21.0279 149.971 50 990 tokyo main 1838 1808 OOOO______P___ jtwc_wp WP141988 21.0000 150.200 45 0 20.9000 149.700 4 50 990 0 9 125 125 0 21.1000 149.900 2 38 990 21.1000 150.000 TS 40 990 21.0394 150.054 2 47 8 280
1988249N18163 1988 71 WP MM HAL 1988-09-09 21:00:00 TS 21.0930 149.550 main 1803 1788 PPPP______P___ WP141988 21.0576 149.700 47 0 20.9648 149.313 4 50 987 0 9 125 125 21.2373 149.485 2 43 987 21.1223 149.635 TS 42 987 21.0828 149.616 2 48 8 277
1988249N18163 1988 71 WP MM HAL 1988-09-10 00:00:00 TS 21.1200 149.160 50 985 tokyo main 1788 1768 OOOO______O___ jtwc_wp WP141988 21.1000 149.200 50 0 21.0000 149.000 4 50 985 0 9 125 125 0 21.3000 149.100 3 48 985 21.1000 149.300 TS 45 985 21.1000 149.200 2 50 7 272
1988249N18163 1988 71 WP MM HAL 1988-09-10 03:00:00 TS 21.1233 148.794 main 1768 1754 PPPP______P___ WP141988 21.1648 148.778 52 0 20.9648 148.750 4 52 982 0 9 137 137 21.2874 148.700 3 48 985 21.0575 148.942 TS 45 985 21.1422 148.799 2 52 7 268
1988249N18163 1988 71 WP MM HAL 1988-09-10 06:00:00 TS 21.0922 148.444 55 980 tokyo main 1749 1740 OOOO______P___ jtwc_wp WP141988 21.2000 148.400 55 0 20.9000 148.500 4 55 980 9 25 25 9 150 150 0 21.2000 148.300 3 48 985 21.0000 148.600 TS 45 985 21.1609 148.419 2 55 7 262
1988249N18163 1988 71 WP MM HAL 1988-09-10 09:00:00 TS 21.0343 148.082 main 1746 1733 PPPP______P___ WP141988 21.1724 148.042 57 0 20.8501 148.158 4 57 980 9 27 27 9 150 150 21.0501 147.862 3 48 985 20.9499 148.293 TS 47 982 21.1491 148.055 2 57 7 259
1988249N18163 1988 71 WP MM HAL 1988-09-10 12:00:00 TS 20.9600 147.740 60 980 tokyo main 1728 1728 OOOO______O___ jtwc_wp WP141988 21.1000 147.700 60 0 20.8000 147.800 4 60 980 9 30 30 9 150 150 0 20.9000 147.500 3 48 985 20.9000 148.000 STS 50 980 21.1000 147.700 2 60 6 258
1988249N18163 1988 71 WP MM HAL 1988-09-10 15:00:00 TS 20.9027 147.436 main 1726 1718 PPPP______P___ WP141988 21.0225 147.335 65 1 20.7574 147.485 4 60 977 9 30 30 9 150 150 20.8423 147.335 3 53 982 20.8650 147.693 STS 55 975 21.0261 147.331 2 65 6 256
1988249N18163 1988 71 WP MM HAL 1988-09-10 18:00:00 TS 20.8200 147.160 60 975 tokyo main 1728 1720 OOOO______O___ jtwc_wp WP141988 20.9000 147.000 70 1 20.7000 147.200 4 60 975 9 30 30 9 150 150 0 20.8000 147.200 3 58 980 20.8000 147.400 STS 60 970 20.9000 147.000 3 70 6 247
1988249N18163 1988 71 WP MM HAL 1988-09-10 21:00:00 TS 20.6912 146.892 main 1726 1723 PPPP______P___ WP141988 20.7149 146.720 75 1 20.6224 146.950 4 62 972 9 40 40 9 162 162 20.7301 146.915 3 63 977 20.6724 147.150 STS 60 970 20.7162 146.726 3 75 6 238
1988249N18163 1988 71 WP MM HAL 1988-09-11 00:00:00 TS 20.5200 146.640 65 970 tokyo main 1736 1736 OOOO______O___ jtwc_wp WP141988 20.5000 146.500 80 1 20.5000 146.700 5 65 970 9 50 50 9 175 175 0 20.6000 146.600 4 68 975 20.5000 146.900 STS 60 970 20.5000 146.500 4 80 6 231
1988249N18163 1988 71 WP MM HAL 1988-09-11 03:00:00 TS 20.3013 146.385 main 1750 1746 PPPP______P___ WP141988 20.2999 146.343 87 2 20.3001 146.392 5 67 970 9 55 55 9 187 187 20.3575 146.327 4 68 972 20.3001 146.585 STS 62 967 20.2488 146.278 4 86 6 226
1988249N18163 1988 71 WP MM HAL 1988-09-11 06:00:00 TS 20.0795 146.157 70 970 tokyo main 1764 1760 OOOO______P___ jtwc_wp WP141988 20.1000 146.200 95 2 20.1000 146.100 5 70 970 9 60 60 9 200 200 0 20.1000 146.100 4 68 970 20.1000 146.300 T 65 965 19.9977 146.085 4 92 6 224
1988249N18163 1988 71 WP MM HAL 1988-09-11 09:00:00 TS 19.8940 145.962 main 1778 1775 PPPP______P___ WP141988 19.8475 146.007 100 3 19.9850 145.855 5 70 967 9 75 75 9 250 250 19.9125 145.913 4 68 970 19.9274 146.113 T 70 960 19.7977 145.924 4 98 4 227
1988249N18163 1988 71 WP MM HAL 1988-09-11 12:00:00 TS 19.7800 145.820 70 965 tokyo main 1782 1779 OOOO______O___ jtwc_wp WP141988 19.7000 145.800 105 3 19.9000 145.700 5 70 965 9 90 90 9 300 300 0 19.8000 145.800 4 68 970 19.8000 146.000 T 75 955 19.7000 145.800 4 105 3 239
1988249N18163 1988 71 WP MM HAL 1988-09-11 15:00:00 TS 19.7617 145.724 main 1779 1779 PPPP______P___ WP141988 19.7900 145.555 105 3 19.7774 145.648 5 72 962 9 90 90 9 300 300 19.7775 145.778 4 68 970 19.7125 145.928 T 75 955 19.7508 145.714 4 105 1 289
1988249N18163 1988 71 WP MM HAL 1988-09-11 18:00:00 TS 19.8215 145.693 75 960 tokyo main 1779 1768 OOOO______P___ jtwc_wp WP141988 20.0000 145.400 105 3 19.7000 145.700 5 75 960 9 90 90 9 300 300 0 19.8000 145.800 4 68 970 19.7000 145.900 T 75 955 19.9074 145.663 4 105 1 0
1988249N18163 1988 71 WP MM HAL 1988-09-11 21:00:00 TS 19.8995 145.716 main 1768 1758 PPPP______P___ WP141988 20.1775 145.477 105 3 19.6900 145.835 5 75 957 9 95 95 9 325 325 19.7550 145.778 4 72 967 19.7400 145.863 T 77 952 20.1352 145.630 4 105 3 18
1988249N18163 1988 71 WP MM HAL 1988-09-12 00:00:00 TS 20.0600 145.780 75 955 tokyo main 1750 1732 OOOO______O___ jtwc_wp WP141988 20.4000 145.600 105 3 19.8000 146.000 5 75 955 9 100 100 9 350 350 0 19.8000 145.800 4 77 965 19.9000 145.900 T 80 950 20.4000 145.600 4 105 4 20
1988249N18163 1988 71 WP MM HAL 1988-09-12 03:00:00 TS 20.3192 145.879 main 1732 1701 PPPP______P___ WP141988 20.6925 145.573 105 3 20.0475 146.145 5 77 955 9 125 125 9 375 375 20.0251 145.972 4 77 962 20.2051 146.137 T 80 950 20.6259 145.570 4 105 6 13
1988249N18163 1988 71 WP MM HAL 1988-09-12 06:00:00 TS 20.6565 145.927 80 955 tokyo main 1690 1655 OOOO______P___ jtwc_wp WP141988 21.0000 145.500 105 3 20.4000 146.200 5 80 955 9 150 150 9 400 400 0 20.4000 146.100 4 77 960 20.6000 146.300 T 80 950 20.8824 145.537 4 105 7 357
1988249N18163 1988 71 WP MM HAL 1988-09-12 09:00:00 TS 21.0125 145.838 main 1655 1609 PPPP______P___ WP141988 21.2350 145.465 105 3 20.7775 146.103 5 80 952 9 150 150 9 400 400 20.8849 146.018 4 82 957 20.9926 146.118 T 82 947 21.1727 145.485 4 105 8 341
1988249N18163 1988 71 WP MM HAL 1988-09-12 12:00:00 TS 21.4000 145.660 80 950 tokyo main 1609 1560 OOOO______O___ jtwc_wp WP141988 21.5000 145.400 105 3 21.2000 145.900 5 80 950 9 150 150 9 400 400 0 21.4000 145.800 5 87 955 21.4000 145.800 ST 85 945 21.5000 145.400 4 105 9 335
1988249N18163 1988 71 WP MM HAL 1988-09-12 15:00:00 TS 21.7974 145.452 main 1560 1508 PPPP______P___ WP141988 21.8775 145.273 105 3 21.6425 145.672 5 82 947 9 150 150 9 400 400 21.8226 145.508 5 87 955 21.7925 145.542 ST 85 945 21.8519 145.265 4 105 9 333
1988249N18163 1988 71 WP MM HAL 1988-09-12 18:00:00 TS 22.2080 145.219 85 945 tokyo main 1508 1459 OOOO______P___ jtwc_wp WP141988 22.3000 145.100 105 3 22.1000 145.400 5 85 945 9 150 150 9 400 400 0 22.2000 145.200 5 87 955 22.2000 145.300 ST 85 945 22.2401 145.095 4 105 9 333
1988249N18163 1988 71 WP MM HAL 1988-09-12 21:00:00 TS 22.6111 144.999 main 1459 1410 PPPP______P___ WP141988 22.7000 144.907 105 3 22.5350 145.100 5 85 945 9 150 150 9 400 400 22.5199 144.985 5 87 955 22.6424 145.100 ST 85 945 22.6582 144.902 4 105 9 334
1988249N18163 1988 71 WP MM HAL 1988-09-13 00:00:00 TS 23.0400 144.780 85 945 tokyo main 1410 1351 OOOO______O___ jtwc_wp WP141988 23.1000 144.700 105 3 23.0000 144.800 5 85 945 9 150 150 9 400 400 0 22.9000 144.800 5 87 955 23.1000 144.900 ST 85 945 23.1000 144.700 4 105 10 336
1988249N18163 1988 71 WP MM HAL 1988-09-13 03:00:00 TS 23.5216 144.556 main 1351 1288 PPPP______P___ WP141988 23.4775 144.500 105 3 23.5575 144.535 5 85 945 9 150 125 9 400 350 23.4850 144.600 5 87 952 23.5425 144.650 ST 87 942 23.5454 144.495 4 105 11 338
1988249N18163 1988 71 WP MM HAL 1988-09-13 06:00:00 TS 24.0225 144.337 85 945 tokyo main 1288 1228 OOOO______P___ jtwc_wp WP141988 23.9000 144.300 105 3 24.1000 144.300 5 85 945 1 150 100 1 400 300 0 24.1000 144.400 5 87 950 24.0000 144.400 ST 90 940 24.0126 144.285 4 105 11 338
1988249N18163 1988 71 WP MM HAL 1988-09-13 09:00:00 TS 24.4982 144.126 main 1228 1169 PPPP______P___ WP141988 24.4350 144.085 105 3 24.5000 144.085 5 82 947 1 137 100 1 375 300 24.5650 144.192 5 87 950 24.4925 144.185 ST 92 937 24.4985 144.083 4 105 10 339
1988249N18163 1988 71 WP MM HAL 1988-09-13 12:00:00 TS 24.9800 143.940 80 950 tokyo main 1169 1113 OOOO______O___ jtwc_wp WP141988 25.0000 143.900 105 3 24.9000 143.900 5 80 950 1 125 100 1 350 300 0 25.0000 144.000 5 87 950 25.0000 144.000 ST 95 935 25.0000 143.900 4 105 10 343
1988249N18163 1988 71 WP MM HAL 1988-09-13 15:00:00 TS 25.4852 143.794 main 1113 1057 PPPP______P___ WP141988 25.4999 143.792 102 3 25.4350 143.735 5 80 950 1 125 100 1 350 300 25.4925 143.842 5 87 950 25.4924 143.850 ST 95 935 25.5064 143.753 4 103 11 346
1988249N18163 1988 71 WP MM HAL 1988-09-13 18:00:00 TS 26.0055 143.665 80 950 tokyo main 1057 998 OOOO______P___ jtwc_wp WP141988 26.0000 143.700 100 3 26.0000 143.600 5 80 950 1 125 100 1 350 300 0 26.0000 143.700 5 87 950 26.0000 143.700 ST 95 935 26.0273 143.627 4 102 11 346
1988249N18163 1988 71 WP MM HAL 1988-09-13 21:00:00 TS 26.5244 143.516 main 998 942 PPPP______P___ WP141988 26.5425 143.550 100 3 26.4925 143.500 5 80 950 1 125 100 1 350 300 26.4850 143.535 5 87 950 26.5426 143.485 ST 95 935 26.5596 143.512 4 101 11 346
1988249N18163 1988 71 WP MM HAL 1988-09-14 00:00:00 TS 27.0600 143.380 80 950 tokyo main 931 875 OOOO______O___ jtwc_wp WP141988 27.1000 143.400 100 3 27.0000 143.400 5 80 950 1 125 100 1 350 300 0 27.0000 143.400 5 87 950 27.1000 143.300 ST 95 935 27.1000 143.400 4 100 11 350
1988249N18163 1988 71 WP MM HAL 1988-09-14 03:00:00 TS 27.6256 143.288 main 875 809 PPPP______P___ WP141988 27.6500 143.300 95 2 27.5925 143.250 5 80 950 1 125 100 1 350 300 27.5924 143.357 5 87 950 27.6424 143.242 ST 90 940 27.6508 143.290 4 96 12 352
1988249N18163 1988 71 WP MM HAL 1988-09-14 06:00:00 TS 28.2014 143.196 80 950 tokyo main 809 754 OOOO______P___ jtwc_wp WP141988 28.2000 143.200 90 2 28.2000 143.100 5 80 950 1 125 100 1 350 300 0 28.2000 143.300 5 87 950 28.2000 143.200 ST 85 945 28.2072 143.179 4 92 12 350
1988249N18163 1988 71 WP MM HAL 1988-09-14 09:00:00 TS 28.7560 143.070 main 744 685 PPPP______P___ WP141988 28.7574 143.080 87 2 28.7274 143.007 5 80 950 1 125 100 1 350 300 28.7350 143.130 5 82 952 28.8000 143.080 ST 80 950 28.7601 143.053 4 88 12 347
1988249N18163 1988 71 WP MM HAL 1988-09-14 12:00:00 TS 29.3200 142.900 80 950 tokyo main 685 616 OOOO______O___ jtwc_wp WP141988 29.3000 142.900 85 2 29.3000 142.900 5 80 950 1 125 100 1 350 300 0 29.3000 142.900 4 77 955 29.4000 142.900 T 75 955 29.3000 142.900 4 85 12 343
1988249N18163 1988 71 WP MM HAL 1988-09-14 15:00:00 TS 29.9433 142.650 main 612 543 PPPP______P___ WP141988 29.8077 142.600 82 1 30.0876 142.708 5 77 952 1 125 100 1 350 300 30.0225 142.650 4 77 955 29.9801 142.658 T 72 957 29.8188 142.633 4 83 13 340
1988249N18163 1988 71 WP MM HAL 1988-09-14 18:00:00 TS 30.5246 142.390 75 955 tokyo main 543 484 OOOO______P___ jtwc_wp WP141988 30.3000 142.300 80 1 30.8000 142.500 5 75 955 2 125 100 2 350 300 0 30.7000 142.400 4 77 955 30.5000 142.400 T 70 960 30.3230 142.349 4 82 11 337
1988249N18163 1988 71 WP MM HAL 1988-09-14 21:00:00 TS 30.9731 142.154 main 484 446 PPPP______P___ WP141988 30.8074 142.083 80 1 31.1750 142.312 5 75 955 2 125 100 2 350 300 31.1525 142.125 4 72 957 30.9150 142.133 T 67 962 30.8155 142.115 4 81 9 340
1988249N18163 1988 71 WP MM HAL 1988-09-15 00:00:00 TS 31.3600 142.040 75 955 tokyo main 436 411 OOOO______O___ jtwc_wp WP141988 31.3000 142.000 80 1 31.4000 142.200 5 75 955 2 125 100 2 350 300 0 31.5000 142.000 4 68 960 31.3000 142.000 T 65 965 31.3000 142.000 4 80 8 0
1988249N18163 1988 71 WP MM HAL 1988-09-15 03:00:00 TS 31.7424 142.127 main 411 383 PPPP______P___ WP141988 31.7499 142.082 77 1 31.6124 142.190 5 72 957 2 125 95 2 325 275 31.8501 142.182 4 68 962 31.7425 142.125 T 65 965 31.7572 142.055 4 77 8 19
1988249N18163 1988 71 WP MM HAL 1988-09-15 06:00:00 TS 32.1423 142.348 70 960 tokyo main 383 353 OOOO______P___ jtwc_wp WP141988 32.2000 142.300 75 1 31.9000 142.300 5 70 960 2 125 90 2 300 250 0 32.2000 142.500 4 68 965 32.2000 142.400 T 65 965 32.2117 142.241 4 75 9 25
1988249N18163 1988 71 WP MM HAL 1988-09-15 09:00:00 TS 32.5960 142.604 main 353 327 PPPP______P___ WP141988 32.6775 142.570 72 1 32.3900 142.505 5 70 962 2 125 85 2 300 250 32.5998 142.735 4 68 965 32.6275 142.678 T 65 965 32.6853 142.531 4 72 11 27
1988249N18163 1988 71 WP MM HAL 1988-09-15 12:00:00 TS 33.1000 142.920 70 965 tokyo main 327 311 OOOO______O___ jtwc_wp WP141988 33.2000 142.900 70 1 33.0000 142.800 5 70 965 2 125 80 2 300 250 0 33.0000 143.000 4 68 965 33.1000 143.000 T 65 965 33.2000 142.900 4 70 12 27
1988249N18163 1988 71 WP MM HAL 1988-09-15 15:00:00 TS 33.6269 143.224 main 312 296 PPPP______P___ WP141988 33.7771 143.206 67 1 33.6419 143.084 5 70 965 2 125 90 2 300 250 33.2822 143.307 4 68 965 33.6622 143.314 T 65 965 33.7709 143.211 4 68 13 28
1988249N18163 1988 71 WP MM HAL 1988-09-15 18:00:00 TS 34.2170 143.621 70 965 tokyo main 297 290 OOOO______P___ jtwc_wp WP141988 34.4000 143.600 65 1 34.3000 143.500 5 70 965 2 125 100 2 300 250 0 33.7000 143.700 4 68 965 34.3000 143.700 T 65 965 34.3850 143.604 4 67 15 32
1988249N18163 1988 71 WP MM HAL 1988-09-15 21:00:00 TS 34.8869 144.165 main 311 308 PPPP______P___ WP141988 35.0419 144.119 65 1 34.8782 144.170 5 67 967 2 112 100 2 275 225 34.4826 144.212 4 68 967 34.9999 144.205 T 65 965 35.0318 144.120 4 66 17 35
1988249N18163 1988 71 WP MM HAL 1988-09-16 00:00:00 TS 35.6000 144.820 65 970 tokyo main 351 351 OOOO______O___ jtwc_wp WP141988 35.7000 144.800 65 1 35.5000 144.900 5 65 970 9 100 100 2 250 200 0 35.4000 144.800 4 68 970 35.7000 144.800 T 65 965 35.7000 144.800 4 65 18 36
1988249N18163 1988 71 WP MM HAL 1988-09-16 03:00:00 TS 36.3021 145.442 main 399 399 PPPP______P___ WP141988 36.3414 145.605 62 0 36.2824 145.371 5 65 970 9 112 100 2 250 200 36.2128 145.299 4 63 972 36.2905 145.349 T 62 967 36.3836 145.588 4 62 18 39
1988249N18163 1988 71 WP MM HAL 1988-09-16 06:00:00 TS 37.0155 146.252 65 970 tokyo main 445 441 OOOO______P___ jtwc_wp WP141988 37.0000 146.600 60 0 37.1000 146.000 5 65 970 2 125 100 2 250 200 0 37.0000 146.000 3 58 975 36.9000 146.100 STS 60 970 37.0775 146.558 4 60 21 47
1988249N18163 1988 71 WP MM HAL 1988-09-16 09:00:00 TS 37.7259 147.362 main 500 496 PPPP______P___ WP141988 37.6981 147.740 57 0 37.8062 147.073 5 62 972 2 112 100 2 250 200 37.7486 147.081 3 53 977 37.6188 147.195 STS 55 975 37.7579 147.725 4 57 24 54
1988249N18163 1988 71 WP MM HAL 1988-09-16 12:00:00 TS 38.4400 148.760 60 975 tokyo main 590 587 OOOO______O___ jtwc_wp WP141988 38.4000 149.100 55 0 38.5000 148.500 4 60 975 9 100 100 3 250 200 0 38.5000 148.500 3 48 980 38.4000 148.600 STS 50 980 38.4000 149.100 2 55 28 59
1988249N18163 1988 71 WP MM HAL 1988-09-16 15:00:00 TS 39.1700 150.385 main 603 603 PPPP______P___ WP141988 39.1005 150.645 52 0 39.2430 150.176 4 57 977 9 80 80 3 225 187 39.3236 150.188 3 48 982 39.2000 150.226 STS 45 985 38.9831 150.687 2 52 30 61
1988249N18163 1988 71 WP MM HAL 1988-09-16 18:00:00 TS 39.8835 152.150 55 980 tokyo main 657 650 OOOO______P___ jtwc_wp WP141988 39.7000 152.400 50 0 40.0000 152.000 4 55 980 9 60 60 3 200 175 0 40.1000 152.000 3 48 985 40.0000 152.000 TS 40 990 39.5064 152.450 2 50 30 63
1988249N18163 1988 71 WP MM HAL 1988-09-16 21:00:00 TS 40.5525 153.857 main 651 650 PPPP______P___ WP141988 40.1145 154.309 47 0 40.7848 153.751 4 52 980 9 3 300 237 40.7207 153.547 3 43 987 40.7663 153.756 TS 37 992 39.9760 154.338 2 47 29 63
1988249N18163 1988 71 WP MM HAL 1988-09-17 00:00:00 TS 41.2200 155.600 50 980 tokyo main 680 677 OOOO______O___ jtwc_wp WP141988 40.4000 156.300 45 0 41.5000 155.500 4 50 980 0 3 400 300 0 41.3000 155.300 2 38 990 41.5000 155.500 TS 35 995 40.4000 156.300 2 45 30 61
1988249N18163 1988 71 WP MM HAL 1988-09-17 03:00:00 TS 42.0135 157.298 main 712 712 _PP___________ WP141988 -1 42.0664 157.142 4 980 0 3 41.9078 157.611 2 38 990 TS 2 30 65
1988249N18163 1988 71 WP MM HAL 1988-09-17 06:00:00 MX 42.5000 159.260 980 tokyo main 810 810 _OO___________ -1 42.5000 159.000 6 980 0 0 0 42.5000 160.300 2 38 990 2 32 76
1988249N18163 1988 71 WP MM HAL 1988-09-17 09:00:00 ET 42.7932 161.466 main 924 924 _P____________ -1 42.7932 161.466 6 980 0 0 2 2 35 82
1988249N18163 1988 71 WP MM HAL 1988-09-17 12:00:00 ET 43.0000 164.000 980 tokyo main 1008 1008 _O____________ -1 43.0000 164.000 6 980 0 0 0 33 82
1988249N18163 1988 71 WP MM HAL 1988-09-17 15:00:00 ET 43.2381 166.003 main 1090 1087 _P____________ -1 43.2381 166.003 6 980 0 0 29 80
1988249N18163 1988 71 WP MM HAL 1988-09-17 18:00:00 ET 43.5000 168.000 980 tokyo main 1171 1171 _O____________ -1 43.5000 168.000 6 980 0 0 0 31 84
1988249N18163 1988 71 WP MM HAL 1988-09-17 21:00:00 ET 43.5520 170.311 main 1279 1279 _P____________ -1 43.5520 170.311 6 980 0 0 36 82
1988249N18163 1988 71 WP MM HAL 1988-09-18 00:00:00 ET 44.0000 173.000 980 tokyo main 1379 1379 _O____________ -1 44.0000 173.000 6 980 0 0 0 46 68
1988249N18163 1988 71 WP MM HAL 1988-09-18 03:00:00 ET 45.2791 176.251 main 1360 1042 _P____________ -1 45.2791 176.251 6 978 0 0 57 59
1988249N18163 1988 71 EP CP HAL 1988-09-18 06:00:00 ET 47.0000 180.000 976 tokyo main 1024 _O____________ -1 47.0000 180.000 6 976 0 0 0 62 56

Digital Typhoon Data and Search

About IBTrACS Database

This database is a web-friendly format of International Best Track Archive for Climate Stewardship (IBTrACS), a global best track data archive curated by NOAA dating back to 1842.

Updated: 2021-10-25